Penza, Russia
Current Conditions -  °F | °C
As of 5:30 PM on Thursday 27 Nov 2014 (Local Time) from UWSS Reporting Station
Clear Clear  
Wind Chill: 11°   Ceiling: Unl
Heat Index: 18°   Visibility: 6mi
Dew Point: 10°   Wind: 4mph
Humidity: 73%   Direction: NA
Pressure: 30.5"   Gusts: NA
Location:  53.2°N, 45°E
Report Text: UWSS 271430Z VRB02MPS CAVOK M08/M12 Q1033 120///60 NOSIG RMKQFE762
Loading
Personal Weather Stations






























Interactive Weather Map New forecast layout! Learn more

10-Day Weather Forecast

Advertisements
Track Severe Weather on mobile